Etusivu
METAR-TAF:

METAR-TAF

Lentoasemat :

Sevillan lentoasema

Sevilla, Espanja

Leveyspiiri: 37-25N, Pituuspiiri: 005-54W, korkeus merenpinnasta: 34 m

Tämänhetkinen sää

Tämä raportti tehtiin 20 minuuttia sitten, kello 04.30 UTC
Tuuli 2 kn idästä
Lämpötila 22°C
Kosteus 69%
Ilmanpaine 1016 hPa
Näkyvyys 10 km tai enemmän
ei pilviä alle 1500 m:ssä eikä cumulonimbus-pilviä

METAR: LEZL 190430Z 10002KT CAVOK 22/16 Q1016 NOSIG

Aika: 06:50 (04:50 UTC)

Sääennuste

Tämä raportti tehtiin 2 tuntia ja 50 minuuttia sitten, kello 02.00 UTC
Ennuste voimassa 19. päivästä klo 03 UTC - 20. päivään klo 03 UTC
Tuuli 3 kn eri suunnista
Näkyvyys 10 km tai enemmän
ei pilviä alle 1500 m:ssä eikä cumulonimbus-pilviä
Tulossa
19. päivästä klo 14 UTC - 19. päivään klo 16 UTC
Tuuli 10 kn lounaasta
Tulossa
19. päivästä klo 21 UTC - 19. päivään klo 23 UTC
Tuuli 5 kn etelästä

TAF: LEZL 190200Z 1903/2003 VRB03KT CAVOK TX41/1915Z TN22/1906Z BECMG 1914/1916 23010KT BECMG 1921/1923 17005KT

Säähavainnot ja -ennusteet yli 4000 lentoasemalta (METAR- ja TAF-raportit).

Käytössä olevat sääasemat on merkitty karttaan keltaisilla ja punaisilla pisteillä.

Aseta hiiri pisteen päälle nähdäksesi sääaseman nimen.

Klikkaa sitten nähdäksesi säähavainnot ja -ennusteet.

Kartan vaihtaminen: klikkaa mustalla rastilla varustettuja vihreitä pisteitä, niin voit zoomata sisään; viivalla varustettua vihreää pistettä, niin voit zoomata ulos tai vihreitä nuolia, niin pääset viereisille kartoille.


METAR-TAF: